sensor_id;sensor_type;location;lat;lon;timestamp;P1;durP1;ratioP1;P2;durP2;ratioP2
11653;SDS011;5883;48.818;9.114;2022-12-18T00:01:40;43.77;;;21.77;;
11653;SDS011;5883;48.818;9.114;2022-12-18T00:04:07;45.50;;;21.63;;
11653;SDS011;5883;48.818;9.114;2022-12-18T00:06:35;39.93;;;20.87;;
11653;SDS011;5883;48.818;9.114;2022-12-18T00:09:02;47.47;;;24.77;;
11653;SDS011;5883;48.818;9.114;2022-12-18T00:11:30;39.70;;;22.03;;
11653;SDS011;5883;48.818;9.114;2022-12-18T00:13:57;44.50;;;21.37;;
11653;SDS011;5883;48.818;9.114;2022-12-18T00:16:24;40.93;;;22.00;;
11653;SDS011;5883;48.818;9.114;2022-12-18T00:18:52;40.77;;;21.13;;
11653;SDS011;5883;48.818;9.114;2022-12-18T00:21:19;46.20;;;22.07;;
11653;SDS011;5883;48.818;9.114;2022-12-18T00:23:48;43.73;;;20.57;;
11653;SDS011;5883;48.818;9.114;2022-12-18T00:26:15;43.73;;;21.93;;
11653;SDS011;5883;48.818;9.114;2022-12-18T00:28:42;48.03;;;22.47;;
11653;SDS011;5883;48.818;9.114;2022-12-18T00:31:09;47.80;;;22.63;;
11653;SDS011;5883;48.818;9.114;2022-12-18T00:33:36;41.97;;;21.53;;
11653;SDS011;5883;48.818;9.114;2022-12-18T00:36:03;48.83;;;24.10;;
11653;SDS011;5883;48.818;9.114;2022-12-18T00:38:29;45.23;;;23.33;;
11653;SDS011;5883;48.818;9.114;2022-12-18T00:40:57;46.33;;;22.07;;
11653;SDS011;5883;48.818;9.114;2022-12-18T00:43:24;40.67;;;22.60;;
11653;SDS011;5883;48.818;9.114;2022-12-18T00:45:50;49.37;;;22.23;;
11653;SDS011;5883;48.818;9.114;2022-12-18T00:48:16;43.50;;;21.47;;
11653;SDS011;5883;48.818;9.114;2022-12-18T00:50:43;43.53;;;22.10;;
11653;SDS011;5883;48.818;9.114;2022-12-18T00:53:09;44.67;;;22.60;;
11653;SDS011;5883;48.818;9.114;2022-12-18T00:55:36;47.33;;;20.83;;
11653;SDS011;5883;48.818;9.114;2022-12-18T00:58:04;43.47;;;21.73;;
11653;SDS011;5883;48.818;9.114;2022-12-18T01:00:31;44.13;;;21.13;;
11653;SDS011;5883;48.818;9.114;2022-12-18T01:02:57;47.13;;;21.63;;
11653;SDS011;5883;48.818;9.114;2022-12-18T01:05:24;47.17;;;21.57;;
11653;SDS011;5883;48.818;9.114;2022-12-18T01:07:51;45.70;;;19.90;;
11653;SDS011;5883;48.818;9.114;2022-12-18T01:10:17;42.60;;;19.50;;
11653;SDS011;5883;48.818;9.114;2022-12-18T01:12:43;38.83;;;20.33;;
11653;SDS011;5883;48.818;9.114;2022-12-18T01:15:12;41.27;;;20.43;;
11653;SDS011;5883;48.818;9.114;2022-12-18T01:17:39;42.17;;;20.10;;
11653;SDS011;5883;48.818;9.114;2022-12-18T01:20:06;42.27;;;19.97;;
11653;SDS011;5883;48.818;9.114;2022-12-18T01:22:32;37.20;;;19.30;;
11653;SDS011;5883;48.818;9.114;2022-12-18T01:24:59;40.03;;;19.67;;
11653;SDS011;5883;48.818;9.114;2022-12-18T01:27:25;36.30;;;19.37;;
11653;SDS011;5883;48.818;9.114;2022-12-18T01:29:52;39.83;;;19.53;;
11653;SDS011;5883;48.818;9.114;2022-12-18T01:32:19;41.30;;;20.43;;
11653;SDS011;5883;48.818;9.114;2022-12-18T01:34:47;39.87;;;19.50;;
11653;SDS011;5883;48.818;9.114;2022-12-18T01:37:13;42.50;;;19.43;;
11653;SDS011;5883;48.818;9.114;2022-12-18T01:39:40;41.53;;;19.63;;
11653;SDS011;5883;48.818;9.114;2022-12-18T01:42:09;44.87;;;20.57;;
11653;SDS011;5883;48.818;9.114;2022-12-18T01:44:56;44.63;;;20.23;;
11653;SDS011;5883;48.818;9.114;2022-12-18T01:47:25;44.33;;;20.70;;
11653;SDS011;5883;48.818;9.114;2022-12-18T01:49:53;37.33;;;19.47;;
11653;SDS011;5883;48.818;9.114;2022-12-18T01:52:20;37.57;;;18.77;;
11653;SDS011;5883;48.818;9.114;2022-12-18T01:54:47;33.13;;;19.07;;
11653;SDS011;5883;48.818;9.114;2022-12-18T01:57:15;45.23;;;20.47;;
11653;SDS011;5883;48.818;9.114;2022-12-18T01:59:42;39.47;;;19.77;;
11653;SDS011;5883;48.818;9.114;2022-12-18T02:02:10;45.30;;;20.73;;
11653;SDS011;5883;48.818;9.114;2022-12-18T02:04:38;39.00;;;19.50;;
11653;SDS011;5883;48.818;9.114;2022-12-18T02:07:07;42.07;;;20.63;;
11653;SDS011;5883;48.818;9.114;2022-12-18T02:09:38;40.23;;;20.03;;
11653;SDS011;5883;48.818;9.114;2022-12-18T02:12:10;38.70;;;19.97;;
11653;SDS011;5883;48.818;9.114;2022-12-18T02:14:40;37.90;;;19.53;;
11653;SDS011;5883;48.818;9.114;2022-12-18T02:17:10;41.13;;;20.60;;
11653;SDS011;5883;48.818;9.114;2022-12-18T02:19:42;41.17;;;21.40;;
11653;SDS011;5883;48.818;9.114;2022-12-18T02:25:04;40.87;;;20.63;;
11653;SDS011;5883;48.818;9.114;2022-12-18T02:27:33;46.77;;;21.67;;
11653;SDS011;5883;48.818;9.114;2022-12-18T02:30:01;42.47;;;20.70;;
11653;SDS011;5883;48.818;9.114;2022-12-18T02:32:29;44.23;;;22.50;;
11653;SDS011;5883;48.818;9.114;2022-12-18T02:34:56;45.70;;;21.57;;
11653;SDS011;5883;48.818;9.114;2022-12-18T02:37:23;45.40;;;22.83;;
11653;SDS011;5883;48.818;9.114;2022-12-18T02:39:52;46.93;;;21.90;;
11653;SDS011;5883;48.818;9.114;2022-12-18T02:42:19;45.30;;;22.50;;
11653;SDS011;5883;48.818;9.114;2022-12-18T02:44:48;42.33;;;21.87;;
11653;SDS011;5883;48.818;9.114;2022-12-18T02:47:15;45.90;;;22.00;;
11653;SDS011;5883;48.818;9.114;2022-12-18T02:49:44;46.47;;;21.50;;
11653;SDS011;5883;48.818;9.114;2022-12-18T02:52:17;45.10;;;21.93;;
11653;SDS011;5883;48.818;9.114;2022-12-18T02:54:49;45.27;;;21.47;;
11653;SDS011;5883;48.818;9.114;2022-12-18T02:57:17;45.93;;;22.33;;
11653;SDS011;5883;48.818;9.114;2022-12-18T02:59:49;42.47;;;21.30;;
11653;SDS011;5883;48.818;9.114;2022-12-18T03:02:17;47.20;;;20.60;;
11653;SDS011;5883;48.818;9.114;2022-12-18T03:04:46;45.70;;;21.77;;
11653;SDS011;5883;48.818;9.114;2022-12-18T03:07:16;47.80;;;20.23;;
11653;SDS011;5883;48.818;9.114;2022-12-18T03:09:45;41.17;;;20.10;;
11653;SDS011;5883;48.818;9.114;2022-12-18T03:12:14;39.43;;;20.13;;
11653;SDS011;5883;48.818;9.114;2022-12-18T03:14:54;36.77;;;19.10;;
11653;SDS011;5883;48.818;9.114;2022-12-18T03:17:22;42.40;;;20.77;;
11653;SDS011;5883;48.818;9.114;2022-12-18T03:19:51;40.27;;;19.00;;
11653;SDS011;5883;48.818;9.114;2022-12-18T03:22:18;41.80;;;21.50;;
11653;SDS011;5883;48.818;9.114;2022-12-18T03:24:47;41.47;;;19.23;;
11653;SDS011;5883;48.818;9.114;2022-12-18T03:27:14;46.20;;;21.03;;
11653;SDS011;5883;48.818;9.114;2022-12-18T03:29:43;45.67;;;20.67;;
11653;SDS011;5883;48.818;9.114;2022-12-18T03:32:14;39.27;;;18.97;;
11653;SDS011;5883;48.818;9.114;2022-12-18T03:34:41;46.83;;;21.17;;
11653;SDS011;5883;48.818;9.114;2022-12-18T03:37:08;50.00;;;21.20;;
11653;SDS011;5883;48.818;9.114;2022-12-18T03:39:35;44.73;;;21.00;;
11653;SDS011;5883;48.818;9.114;2022-12-18T03:42:04;40.33;;;20.27;;
11653;SDS011;5883;48.818;9.114;2022-12-18T03:44:33;38.50;;;18.37;;
11653;SDS011;5883;48.818;9.114;2022-12-18T03:47:03;35.93;;;19.00;;
11653;SDS011;5883;48.818;9.114;2022-12-18T03:49:34;37.40;;;18.40;;
11653;SDS011;5883;48.818;9.114;2022-12-18T03:52:02;36.43;;;19.13;;
11653;SDS011;5883;48.818;9.114;2022-12-18T03:54:29;40.73;;;19.60;;
11653;SDS011;5883;48.818;9.114;2022-12-18T03:56:58;38.57;;;19.97;;
11653;SDS011;5883;48.818;9.114;2022-12-18T03:59:25;44.43;;;19.17;;
11653;SDS011;5883;48.818;9.114;2022-12-18T04:01:53;36.07;;;18.03;;
11653;SDS011;5883;48.818;9.114;2022-12-18T04:04:21;39.87;;;18.07;;
11653;SDS011;5883;48.818;9.114;2022-12-18T04:06:50;39.70;;;19.70;;
11653;SDS011;5883;48.818;9.114;2022-12-18T04:09:17;46.40;;;19.83;;
11653;SDS011;5883;48.818;9.114;2022-12-18T04:11:44;38.60;;;18.77;;
11653;SDS011;5883;48.818;9.114;2022-12-18T04:14:10;34.07;;;18.43;;
11653;SDS011;5883;48.818;9.114;2022-12-18T04:16:36;39.97;;;18.30;;
11653;SDS011;5883;48.818;9.114;2022-12-18T04:19:03;40.03;;;19.07;;
11653;SDS011;5883;48.818;9.114;2022-12-18T04:21:29;33.47;;;18.37;;
11653;SDS011;5883;48.818;9.114;2022-12-18T04:23:57;40.50;;;18.80;;
11653;SDS011;5883;48.818;9.114;2022-12-18T04:26:24;37.80;;;17.47;;
11653;SDS011;5883;48.818;9.114;2022-12-18T04:28:50;37.93;;;18.80;;
11653;SDS011;5883;48.818;9.114;2022-12-18T04:31:17;36.90;;;19.33;;
11653;SDS011;5883;48.818;9.114;2022-12-18T04:33:43;34.13;;;16.03;;
11653;SDS011;5883;48.818;9.114;2022-12-18T04:36:10;31.27;;;17.70;;
11653;SDS011;5883;48.818;9.114;2022-12-18T04:38:37;33.07;;;15.87;;
11653;SDS011;5883;48.818;9.114;2022-12-18T04:41:05;38.40;;;17.47;;
11653;SDS011;5883;48.818;9.114;2022-12-18T04:43:31;33.63;;;17.67;;
11653;SDS011;5883;48.818;9.114;2022-12-18T04:46:02;41.83;;;17.80;;
11653;SDS011;5883;48.818;9.114;2022-12-18T04:48:29;31.50;;;16.43;;
11653;SDS011;5883;48.818;9.114;2022-12-18T04:50:56;34.83;;;17.47;;
11653;SDS011;5883;48.818;9.114;2022-12-18T04:53:22;31.07;;;16.27;;
11653;SDS011;5883;48.818;9.114;2022-12-18T04:55:48;29.33;;;16.10;;
11653;SDS011;5883;48.818;9.114;2022-12-18T04:58:16;31.90;;;15.50;;
11653;SDS011;5883;48.818;9.114;2022-12-18T05:00:43;32.93;;;16.33;;
11653;SDS011;5883;48.818;9.114;2022-12-18T05:03:09;31.43;;;16.00;;
11653;SDS011;5883;48.818;9.114;2022-12-18T05:05:36;25.33;;;13.60;;
11653;SDS011;5883;48.818;9.114;2022-12-18T05:08:02;22.70;;;13.20;;
11653;SDS011;5883;48.818;9.114;2022-12-18T05:10:29;30.23;;;16.30;;
11653;SDS011;5883;48.818;9.114;2022-12-18T05:12:55;24.83;;;14.67;;
11653;SDS011;5883;48.818;9.114;2022-12-18T05:15:27;33.33;;;15.23;;
11653;SDS011;5883;48.818;9.114;2022-12-18T05:17:54;26.07;;;12.63;;
11653;SDS011;5883;48.818;9.114;2022-12-18T05:20:20;29.30;;;14.87;;
11653;SDS011;5883;48.818;9.114;2022-12-18T05:22:47;32.90;;;15.87;;
11653;SDS011;5883;48.818;9.114;2022-12-18T05:25:13;30.80;;;14.30;;
11653;SDS011;5883;48.818;9.114;2022-12-18T05:27:40;29.43;;;13.50;;
11653;SDS011;5883;48.818;9.114;2022-12-18T05:30:07;29.70;;;15.80;;
11653;SDS011;5883;48.818;9.114;2022-12-18T05:32:35;27.53;;;14.83;;
11653;SDS011;5883;48.818;9.114;2022-12-18T05:35:03;27.80;;;14.87;;
11653;SDS011;5883;48.818;9.114;2022-12-18T05:37:30;32.07;;;15.43;;
11653;SDS011;5883;48.818;9.114;2022-12-18T05:39:56;28.40;;;14.43;;
11653;SDS011;5883;48.818;9.114;2022-12-18T05:42:23;30.20;;;15.23;;
11653;SDS011;5883;48.818;9.114;2022-12-18T05:44:49;31.27;;;15.10;;
11653;SDS011;5883;48.818;9.114;2022-12-18T05:47:16;34.63;;;16.37;;
11653;SDS011;5883;48.818;9.114;2022-12-18T05:49:44;27.17;;;13.53;;
11653;SDS011;5883;48.818;9.114;2022-12-18T05:52:10;26.50;;;13.63;;
11653;SDS011;5883;48.818;9.114;2022-12-18T05:54:37;25.23;;;13.90;;
11653;SDS011;5883;48.818;9.114;2022-12-18T05:57:04;28.13;;;14.13;;
11653;SDS011;5883;48.818;9.114;2022-12-18T05:59:30;32.60;;;15.33;;
11653;SDS011;5883;48.818;9.114;2022-12-18T06:01:57;29.07;;;14.97;;
11653;SDS011;5883;48.818;9.114;2022-12-18T06:04:23;31.43;;;15.77;;
11653;SDS011;5883;48.818;9.114;2022-12-18T06:06:51;34.17;;;16.20;;
11653;SDS011;5883;48.818;9.114;2022-12-18T06:09:18;27.50;;;14.47;;
11653;SDS011;5883;48.818;9.114;2022-12-18T06:11:44;32.13;;;15.83;;
11653;SDS011;5883;48.818;9.114;2022-12-18T06:14:11;28.80;;;14.10;;
11653;SDS011;5883;48.818;9.114;2022-12-18T06:16:38;27.47;;;15.33;;
11653;SDS011;5883;48.818;9.114;2022-12-18T06:19:05;31.33;;;16.27;;
11653;SDS011;5883;48.818;9.114;2022-12-18T06:21:32;30.90;;;15.33;;
11653;SDS011;5883;48.818;9.114;2022-12-18T06:24:00;31.83;;;15.27;;
11653;SDS011;5883;48.818;9.114;2022-12-18T06:26:26;26.80;;;14.23;;
11653;SDS011;5883;48.818;9.114;2022-12-18T06:28:53;26.40;;;14.77;;
11653;SDS011;5883;48.818;9.114;2022-12-18T06:31:19;29.70;;;13.30;;
11653;SDS011;5883;48.818;9.114;2022-12-18T06:33:46;28.17;;;15.00;;
11653;SDS011;5883;48.818;9.114;2022-12-18T06:36:13;30.23;;;14.33;;
11653;SDS011;5883;48.818;9.114;2022-12-18T06:38:40;28.73;;;14.53;;
11653;SDS011;5883;48.818;9.114;2022-12-18T06:41:08;28.10;;;14.70;;
11653;SDS011;5883;48.818;9.114;2022-12-18T06:43:35;28.37;;;13.90;;
11653;SDS011;5883;48.818;9.114;2022-12-18T06:46:02;25.43;;;13.43;;
11653;SDS011;5883;48.818;9.114;2022-12-18T06:48:29;28.30;;;14.70;;
11653;SDS011;5883;48.818;9.114;2022-12-18T06:50:55;27.00;;;12.93;;
11653;SDS011;5883;48.818;9.114;2022-12-18T06:53:22;28.90;;;15.20;;
11653;SDS011;5883;48.818;9.114;2022-12-18T06:55:48;27.53;;;14.43;;
11653;SDS011;5883;48.818;9.114;2022-12-18T06:58:16;27.57;;;14.00;;
11653;SDS011;5883;48.818;9.114;2022-12-18T07:00:43;26.57;;;14.00;;
11653;SDS011;5883;48.818;9.114;2022-12-18T07:03:09;27.50;;;15.17;;
11653;SDS011;5883;48.818;9.114;2022-12-18T07:05:39;35.30;;;17.03;;
11653;SDS011;5883;48.818;9.114;2022-12-18T07:08:05;31.37;;;16.30;;
11653;SDS011;5883;48.818;9.114;2022-12-18T07:10:32;29.40;;;14.30;;
11653;SDS011;5883;48.818;9.114;2022-12-18T07:12:58;30.23;;;13.17;;
11653;SDS011;5883;48.818;9.114;2022-12-18T07:15:26;26.03;;;13.47;;
11653;SDS011;5883;48.818;9.114;2022-12-18T07:17:53;33.00;;;14.53;;
11653;SDS011;5883;48.818;9.114;2022-12-18T07:20:19;31.17;;;14.77;;
11653;SDS011;5883;48.818;9.114;2022-12-18T07:22:46;26.30;;;14.50;;
11653;SDS011;5883;48.818;9.114;2022-12-18T07:25:12;27.63;;;14.20;;
11653;SDS011;5883;48.818;9.114;2022-12-18T07:27:38;24.07;;;13.87;;
11653;SDS011;5883;48.818;9.114;2022-12-18T07:30:05;24.97;;;13.43;;
11653;SDS011;5883;48.818;9.114;2022-12-18T07:32:33;24.47;;;13.33;;
11653;SDS011;5883;48.818;9.114;2022-12-18T07:35:00;32.27;;;14.87;;
11653;SDS011;5883;48.818;9.114;2022-12-18T07:37:27;26.77;;;14.40;;
11653;SDS011;5883;48.818;9.114;2022-12-18T07:39:53;30.30;;;15.03;;
11653;SDS011;5883;48.818;9.114;2022-12-18T07:42:20;27.33;;;15.13;;
11653;SDS011;5883;48.818;9.114;2022-12-18T07:45:00;37.70;;;17.03;;
11653;SDS011;5883;48.818;9.114;2022-12-18T07:47:26;27.30;;;15.37;;
11653;SDS011;5883;48.818;9.114;2022-12-18T07:49:54;28.13;;;14.80;;
11653;SDS011;5883;48.818;9.114;2022-12-18T07:52:21;28.93;;;14.93;;
11653;SDS011;5883;48.818;9.114;2022-12-18T07:54:47;30.37;;;15.50;;
11653;SDS011;5883;48.818;9.114;2022-12-18T07:57:15;29.73;;;14.73;;
11653;SDS011;5883;48.818;9.114;2022-12-18T07:59:41;32.20;;;16.23;;
11653;SDS011;5883;48.818;9.114;2022-12-18T08:02:08;28.13;;;15.17;;
11653;SDS011;5883;48.818;9.114;2022-12-18T08:04:34;29.63;;;15.10;;
11653;SDS011;5883;48.818;9.114;2022-12-18T08:07:02;31.53;;;14.93;;
11653;SDS011;5883;48.818;9.114;2022-12-18T08:09:28;32.43;;;16.90;;
11653;SDS011;5883;48.818;9.114;2022-12-18T08:11:55;38.17;;;17.90;;
11653;SDS011;5883;48.818;9.114;2022-12-18T08:14:21;32.80;;;18.20;;
11653;SDS011;5883;48.818;9.114;2022-12-18T08:16:48;28.67;;;16.53;;
11653;SDS011;5883;48.818;9.114;2022-12-18T08:19:14;31.53;;;15.83;;
11653;SDS011;5883;48.818;9.114;2022-12-18T08:21:41;26.73;;;15.57;;
11653;SDS011;5883;48.818;9.114;2022-12-18T08:24:09;32.37;;;17.30;;
11653;SDS011;5883;48.818;9.114;2022-12-18T08:26:35;29.80;;;16.10;;
11653;SDS011;5883;48.818;9.114;2022-12-18T08:29:02;28.87;;;16.20;;
11653;SDS011;5883;48.818;9.114;2022-12-18T08:31:29;31.70;;;16.17;;
11653;SDS011;5883;48.818;9.114;2022-12-18T08:33:56;38.67;;;17.47;;
11653;SDS011;5883;48.818;9.114;2022-12-18T08:36:23;34.50;;;16.70;;
11653;SDS011;5883;48.818;9.114;2022-12-18T08:38:50;31.67;;;16.67;;
11653;SDS011;5883;48.818;9.114;2022-12-18T08:41:18;32.37;;;16.57;;
11653;SDS011;5883;48.818;9.114;2022-12-18T08:43:44;27.83;;;15.37;;
11653;SDS011;5883;48.818;9.114;2022-12-18T08:46:43;33.30;;;17.00;;
11653;SDS011;5883;48.818;9.114;2022-12-18T08:49:10;31.57;;;16.60;;
11653;SDS011;5883;48.818;9.114;2022-12-18T08:51:37;33.63;;;17.33;;
11653;SDS011;5883;48.818;9.114;2022-12-18T08:54:03;34.43;;;17.73;;
11653;SDS011;5883;48.818;9.114;2022-12-18T08:56:31;32.43;;;17.93;;
11653;SDS011;5883;48.818;9.114;2022-12-18T08:58:59;30.37;;;16.77;;
11653;SDS011;5883;48.818;9.114;2022-12-18T09:01:25;36.57;;;17.27;;
11653;SDS011;5883;48.818;9.114;2022-12-18T09:03:52;32.93;;;18.03;;
11653;SDS011;5883;48.818;9.114;2022-12-18T09:06:18;33.37;;;17.77;;
11653;SDS011;5883;48.818;9.114;2022-12-18T09:08:45;30.60;;;16.80;;
11653;SDS011;5883;48.818;9.114;2022-12-18T09:11:13;32.23;;;18.00;;
11653;SDS011;5883;48.818;9.114;2022-12-18T09:13:41;43.23;;;20.47;;
11653;SDS011;5883;48.818;9.114;2022-12-18T09:16:07;40.47;;;20.20;;
11653;SDS011;5883;48.818;9.114;2022-12-18T09:18:35;47.67;;;22.23;;
11653;SDS011;5883;48.818;9.114;2022-12-18T09:21:07;48.90;;;23.20;;
11653;SDS011;5883;48.818;9.114;2022-12-18T09:23:33;52.80;;;24.40;;
11653;SDS011;5883;48.818;9.114;2022-12-18T09:26:00;38.70;;;21.27;;
11653;SDS011;5883;48.818;9.114;2022-12-18T09:28:26;38.20;;;21.20;;
11653;SDS011;5883;48.818;9.114;2022-12-18T09:30:54;35.70;;;19.53;;
11653;SDS011;5883;48.818;9.114;2022-12-18T09:33:21;33.77;;;18.33;;
11653;SDS011;5883;48.818;9.114;2022-12-18T09:35:48;33.60;;;18.53;;
11653;SDS011;5883;48.818;9.114;2022-12-18T09:38:16;39.37;;;18.67;;
11653;SDS011;5883;48.818;9.114;2022-12-18T09:40:43;34.63;;;18.13;;
11653;SDS011;5883;48.818;9.114;2022-12-18T09:43:13;31.50;;;17.73;;
11653;SDS011;5883;48.818;9.114;2022-12-18T09:45:41;39.43;;;19.57;;
11653;SDS011;5883;48.818;9.114;2022-12-18T09:48:13;35.93;;;19.13;;
11653;SDS011;5883;48.818;9.114;2022-12-18T09:50:42;31.53;;;17.63;;
11653;SDS011;5883;48.818;9.114;2022-12-18T09:53:10;38.40;;;18.37;;
11653;SDS011;5883;48.818;9.114;2022-12-18T09:55:38;35.53;;;18.23;;
11653;SDS011;5883;48.818;9.114;2022-12-18T09:58:06;33.40;;;18.90;;
11653;SDS011;5883;48.818;9.114;2022-12-18T10:00:34;32.53;;;18.00;;
11653;SDS011;5883;48.818;9.114;2022-12-18T10:03:00;34.67;;;19.87;;
11653;SDS011;5883;48.818;9.114;2022-12-18T10:05:33;33.10;;;20.03;;
11653;SDS011;5883;48.818;9.114;2022-12-18T10:08:04;31.07;;;18.93;;
11653;SDS011;5883;48.818;9.114;2022-12-18T10:10:33;34.40;;;18.47;;
11653;SDS011;5883;48.818;9.114;2022-12-18T10:13:05;32.23;;;17.87;;
11653;SDS011;5883;48.818;9.114;2022-12-18T10:15:35;33.57;;;17.93;;
11653;SDS011;5883;48.818;9.114;2022-12-18T10:18:05;28.63;;;17.10;;
11653;SDS011;5883;48.818;9.114;2022-12-18T10:20:40;32.40;;;18.17;;
11653;SDS011;5883;48.818;9.114;2022-12-18T10:23:10;33.43;;;18.10;;
11653;SDS011;5883;48.818;9.114;2022-12-18T10:25:41;36.43;;;17.53;;
11653;SDS011;5883;48.818;9.114;2022-12-18T10:28:10;35.73;;;19.00;;
11653;SDS011;5883;48.818;9.114;2022-12-18T10:30:38;34.93;;;18.40;;
11653;SDS011;5883;48.818;9.114;2022-12-18T10:33:05;36.10;;;19.13;;
11653;SDS011;5883;48.818;9.114;2022-12-18T10:35:32;31.57;;;18.43;;
11653;SDS011;5883;48.818;9.114;2022-12-18T10:38:00;33.60;;;18.70;;
11653;SDS011;5883;48.818;9.114;2022-12-18T10:40:27;31.50;;;18.10;;
11653;SDS011;5883;48.818;9.114;2022-12-18T10:43:04;34.60;;;19.43;;
11653;SDS011;5883;48.818;9.114;2022-12-18T10:45:31;33.77;;;17.70;;
11653;SDS011;5883;48.818;9.114;2022-12-18T10:47:57;36.47;;;19.00;;
11653;SDS011;5883;48.818;9.114;2022-12-18T10:50:25;32.53;;;18.10;;
11653;SDS011;5883;48.818;9.114;2022-12-18T10:52:54;38.57;;;19.70;;
11653;SDS011;5883;48.818;9.114;2022-12-18T10:55:22;38.33;;;18.93;;
11653;SDS011;5883;48.818;9.114;2022-12-18T10:57:49;32.20;;;18.63;;
11653;SDS011;5883;48.818;9.114;2022-12-18T11:00:21;35.30;;;18.93;;
11653;SDS011;5883;48.818;9.114;2022-12-18T11:02:48;32.80;;;18.03;;
11653;SDS011;5883;48.818;9.114;2022-12-18T11:05:26;33.00;;;17.93;;
11653;SDS011;5883;48.818;9.114;2022-12-18T11:07:52;35.97;;;18.27;;
11653;SDS011;5883;48.818;9.114;2022-12-18T11:10:20;37.43;;;18.90;;
11653;SDS011;5883;48.818;9.114;2022-12-18T11:12:48;29.10;;;18.33;;
11653;SDS011;5883;48.818;9.114;2022-12-18T11:15:15;35.00;;;17.67;;
11653;SDS011;5883;48.818;9.114;2022-12-18T11:17:43;34.37;;;18.27;;
11653;SDS011;5883;48.818;9.114;2022-12-18T11:20:19;32.13;;;18.27;;
11653;SDS011;5883;48.818;9.114;2022-12-18T11:22:54;35.13;;;18.57;;
11653;SDS011;5883;48.818;9.114;2022-12-18T11:25:21;29.73;;;17.13;;
11653;SDS011;5883;48.818;9.114;2022-12-18T11:27:50;33.53;;;18.47;;
11653;SDS011;5883;48.818;9.114;2022-12-18T11:30:21;35.13;;;18.93;;
11653;SDS011;5883;48.818;9.114;2022-12-18T11:32:48;33.60;;;18.67;;
11653;SDS011;5883;48.818;9.114;2022-12-18T11:35:17;33.00;;;17.53;;
11653;SDS011;5883;48.818;9.114;2022-12-18T11:37:47;30.67;;;17.87;;
11653;SDS011;5883;48.818;9.114;2022-12-18T11:40:15;34.57;;;17.53;;
11653;SDS011;5883;48.818;9.114;2022-12-18T11:42:45;35.03;;;18.27;;
11653;SDS011;5883;48.818;9.114;2022-12-18T11:45:20;34.33;;;17.53;;
11653;SDS011;5883;48.818;9.114;2022-12-18T11:47:48;33.77;;;17.67;;
11653;SDS011;5883;48.818;9.114;2022-12-18T11:50:17;34.33;;;17.37;;
11653;SDS011;5883;48.818;9.114;2022-12-18T11:52:44;31.07;;;17.30;;
11653;SDS011;5883;48.818;9.114;2022-12-18T11:55:11;30.20;;;17.87;;
11653;SDS011;5883;48.818;9.114;2022-12-18T11:57:41;34.40;;;17.63;;
11653;SDS011;5883;48.818;9.114;2022-12-18T12:00:12;32.67;;;18.43;;
11653;SDS011;5883;48.818;9.114;2022-12-18T12:05:31;29.87;;;16.43;;
11653;SDS011;5883;48.818;9.114;2022-12-18T12:08:00;34.43;;;17.70;;
11653;SDS011;5883;48.818;9.114;2022-12-18T12:10:33;33.27;;;17.87;;
11653;SDS011;5883;48.818;9.114;2022-12-18T12:13:06;31.50;;;17.10;;
11653;SDS011;5883;48.818;9.114;2022-12-18T12:15:39;32.30;;;17.67;;
11653;SDS011;5883;48.818;9.114;2022-12-18T12:18:09;29.80;;;17.40;;
11653;SDS011;5883;48.818;9.114;2022-12-18T12:20:44;26.93;;;16.17;;
11653;SDS011;5883;48.818;9.114;2022-12-18T12:23:13;26.80;;;15.80;;
11653;SDS011;5883;48.818;9.114;2022-12-18T12:25:43;36.60;;;18.17;;
11653;SDS011;5883;48.818;9.114;2022-12-18T12:28:13;31.33;;;16.33;;
11653;SDS011;5883;48.818;9.114;2022-12-18T12:30:44;31.93;;;17.40;;
11653;SDS011;5883;48.818;9.114;2022-12-18T12:33:19;30.40;;;16.03;;
11653;SDS011;5883;48.818;9.114;2022-12-18T12:35:49;34.93;;;18.20;;
11653;SDS011;5883;48.818;9.114;2022-12-18T12:38:19;37.53;;;18.27;;
11653;SDS011;5883;48.818;9.114;2022-12-18T12:40:48;30.13;;;15.50;;
11653;SDS011;5883;48.818;9.114;2022-12-18T12:43:20;30.40;;;16.07;;
11653;SDS011;5883;48.818;9.114;2022-12-18T12:45:47;35.37;;;17.67;;
11653;SDS011;5883;48.818;9.114;2022-12-18T12:48:16;33.70;;;17.57;;
11653;SDS011;5883;48.818;9.114;2022-12-18T12:50:43;31.60;;;16.30;;
11653;SDS011;5883;48.818;9.114;2022-12-18T12:53:14;31.80;;;16.73;;
11653;SDS011;5883;48.818;9.114;2022-12-18T12:55:43;31.40;;;17.03;;
11653;SDS011;5883;48.818;9.114;2022-12-18T12:58:11;30.03;;;16.17;;
11653;SDS011;5883;48.818;9.114;2022-12-18T13:00:41;34.73;;;17.87;;
11653;SDS011;5883;48.818;9.114;2022-12-18T13:03:12;31.13;;;16.97;;
11653;SDS011;5883;48.818;9.114;2022-12-18T13:05:42;31.43;;;16.60;;
11653;SDS011;5883;48.818;9.114;2022-12-18T13:08:13;43.37;;;25.53;;
11653;SDS011;5883;48.818;9.114;2022-12-18T13:10:48;33.43;;;18.10;;
11653;SDS011;5883;48.818;9.114;2022-12-18T13:13:15;27.37;;;15.70;;
11653;SDS011;5883;48.818;9.114;2022-12-18T13:15:41;27.83;;;15.87;;
11653;SDS011;5883;48.818;9.114;2022-12-18T13:18:19;27.10;;;15.87;;
11653;SDS011;5883;48.818;9.114;2022-12-18T13:20:46;30.63;;;16.43;;
11653;SDS011;5883;48.818;9.114;2022-12-18T13:23:25;33.43;;;16.33;;
11653;SDS011;5883;48.818;9.114;2022-12-18T13:25:52;29.60;;;15.70;;
11653;SDS011;5883;48.818;9.114;2022-12-18T13:28:20;30.77;;;16.43;;
11653;SDS011;5883;48.818;9.114;2022-12-18T13:30:48;31.13;;;16.90;;
11653;SDS011;5883;48.818;9.114;2022-12-18T13:36:28;31.30;;;15.87;;
11653;SDS011;5883;48.818;9.114;2022-12-18T13:39:10;28.10;;;15.27;;
11653;SDS011;5883;48.818;9.114;2022-12-18T13:41:37;28.80;;;15.43;;
11653;SDS011;5883;48.818;9.114;2022-12-18T13:44:10;28.60;;;15.87;;
11653;SDS011;5883;48.818;9.114;2022-12-18T13:46:42;30.87;;;16.57;;
11653;SDS011;5883;48.818;9.114;2022-12-18T13:49:16;31.53;;;16.40;;
11653;SDS011;5883;48.818;9.114;2022-12-18T13:52:16;32.10;;;16.07;;
11653;SDS011;5883;48.818;9.114;2022-12-18T13:54:47;28.80;;;15.70;;
11653;SDS011;5883;48.818;9.114;2022-12-18T13:57:24;32.93;;;15.80;;
11653;SDS011;5883;48.818;9.114;2022-12-18T13:59:51;30.43;;;16.43;;
11653;SDS011;5883;48.818;9.114;2022-12-18T14:02:20;30.77;;;16.17;;
11653;SDS011;5883;48.818;9.114;2022-12-18T14:04:47;34.43;;;17.40;;
11653;SDS011;5883;48.818;9.114;2022-12-18T14:07:15;35.27;;;17.80;;
11653;SDS011;5883;48.818;9.114;2022-12-18T14:09:44;38.17;;;17.93;;
11653;SDS011;5883;48.818;9.114;2022-12-18T14:12:24;30.83;;;18.87;;
11653;SDS011;5883;48.818;9.114;2022-12-18T14:15:20;31.80;;;15.87;;
11653;SDS011;5883;48.818;9.114;2022-12-18T14:17:49;37.30;;;18.47;;
11653;SDS011;5883;48.818;9.114;2022-12-18T14:20:16;31.40;;;17.27;;
11653;SDS011;5883;48.818;9.114;2022-12-18T14:22:43;35.67;;;17.43;;
11653;SDS011;5883;48.818;9.114;2022-12-18T14:25:15;35.00;;;18.17;;
11653;SDS011;5883;48.818;9.114;2022-12-18T14:27:47;32.40;;;17.63;;
11653;SDS011;5883;48.818;9.114;2022-12-18T14:30:25;30.53;;;16.70;;
11653;SDS011;5883;48.818;9.114;2022-12-18T14:32:59;29.13;;;16.53;;
11653;SDS011;5883;48.818;9.114;2022-12-18T14:35:26;31.50;;;16.73;;
11653;SDS011;5883;48.818;9.114;2022-12-18T14:37:53;32.40;;;17.00;;
11653;SDS011;5883;48.818;9.114;2022-12-18T14:40:19;33.67;;;16.43;;
11653;SDS011;5883;48.818;9.114;2022-12-18T14:42:48;29.73;;;16.37;;
11653;SDS011;5883;48.818;9.114;2022-12-18T14:45:33;31.60;;;16.80;;
11653;SDS011;5883;48.818;9.114;2022-12-18T14:48:00;35.53;;;18.63;;
11653;SDS011;5883;48.818;9.114;2022-12-18T14:50:31;33.37;;;18.17;;